createdAt,value
2017-08-09T00:02:21.095Z,77.60
2017-08-09T00:04:50.093Z,76.60
2017-08-09T00:07:18.483Z,76.60
2017-08-09T00:09:46.726Z,76.90
2017-08-09T00:12:15.767Z,77.10
2017-08-09T00:14:43.990Z,77.10
2017-08-09T00:17:13.017Z,77.20
2017-08-09T00:19:41.251Z,77.10
2017-08-09T00:22:09.506Z,77.00
2017-08-09T00:24:37.763Z,76.70
2017-08-09T00:27:06.006Z,76.90
2017-08-09T00:29:35.031Z,78.30
2017-08-09T00:32:03.273Z,78.30
2017-08-09T00:34:32.305Z,78.60
2017-08-09T00:37:00.533Z,78.60
2017-08-09T00:39:29.534Z,78.70
2017-08-09T00:41:57.800Z,78.70
2017-08-09T00:44:26.027Z,78.40
2017-08-09T00:46:54.284Z,78.20
2017-08-09T00:49:22.561Z,78.20
2017-08-09T00:51:51.563Z,79.00
2017-08-09T00:54:19.848Z,78.90
2017-08-09T00:56:48.103Z,79.10
2017-08-09T00:59:17.115Z,79.60
2017-08-09T01:01:45.389Z,79.50
2017-08-09T01:04:13.683Z,80.10
2017-08-09T01:06:41.938Z,79.70
2017-08-09T01:09:10.184Z,79.20
2017-08-09T01:11:39.225Z,79.00
2017-08-09T01:14:07.457Z,78.90
2017-08-09T01:16:35.736Z,79.10
2017-08-09T01:19:04.743Z,79.60
2017-08-09T01:21:33.004Z,79.50
2017-08-09T01:24:01.240Z,80.00
2017-08-09T01:26:29.490Z,80.50
2017-08-09T01:28:57.723Z,80.90
2017-08-09T01:31:25.970Z,81.00
2017-08-09T01:33:54.241Z,81.10
2017-08-09T01:36:22.521Z,80.90
2017-08-09T01:38:50.769Z,80.60
2017-08-09T01:41:19.026Z,80.60
2017-08-09T01:43:48.042Z,80.30
2017-08-09T01:46:16.290Z,80.20
2017-08-09T01:48:45.318Z,80.60
2017-08-09T01:51:13.589Z,80.50
2017-08-09T01:53:41.838Z,80.80
2017-08-09T01:56:10.865Z,80.00
2017-08-09T01:58:39.134Z,80.30
2017-08-09T02:01:07.403Z,80.10
2017-08-09T02:03:35.667Z,80.40
2017-08-09T02:06:03.941Z,80.80
2017-08-09T02:08:32.979Z,81.50
2017-08-09T02:11:01.237Z,81.00
2017-08-09T02:13:29.513Z,80.90
2017-08-09T02:15:57.764Z,80.80
2017-08-09T02:18:26.006Z,80.90
2017-08-09T02:20:54.383Z,80.90
2017-08-09T02:23:22.610Z,81.00
2017-08-09T02:25:50.965Z,81.40
2017-08-09T02:28:19.202Z,81.30
2017-08-09T02:30:47.460Z,81.60
2017-08-09T02:33:15.738Z,81.60
2017-08-09T02:35:43.993Z,81.70
2017-08-09T02:38:13.024Z,81.90
2017-08-09T02:40:41.268Z,81.90
2017-08-09T02:43:10.496Z,82.00
2017-08-09T02:45:38.735Z,81.90
2017-08-09T02:48:07.046Z,81.80
2017-08-09T02:50:35.269Z,82.30
2017-08-09T02:53:03.543Z,82.00
2017-08-09T02:55:31.821Z,82.00
2017-08-09T02:58:00.045Z,81.80
2017-08-09T03:00:28.341Z,81.80
2017-08-09T03:02:56.572Z,81.90
2017-08-09T03:05:25.609Z,82.10
2017-08-09T03:07:54.681Z,82.00
2017-08-09T03:10:23.680Z,82.10
2017-08-09T03:12:51.913Z,82.10
2017-08-09T03:15:20.181Z,81.90
2017-08-09T03:17:48.436Z,81.90
2017-08-09T03:20:17.150Z,81.60
2017-08-09T03:22:45.416Z,81.50
2017-08-09T03:25:13.646Z,80.90
2017-08-09T03:27:41.901Z,80.40
2017-08-09T03:30:10.914Z,80.60
2017-08-09T03:32:39.186Z,80.50
2017-08-09T03:35:08.179Z,80.60
2017-08-09T03:37:36.454Z,80.10
2017-08-09T03:40:05.497Z,79.20
2017-08-09T03:42:33.770Z,79.10
2017-08-09T03:45:02.023Z,78.60
2017-08-09T03:47:30.321Z,78.30
2017-08-09T03:49:59.378Z,77.00
2017-08-09T03:52:27.591Z,77.00
2017-08-09T03:54:55.821Z,76.10
2017-08-09T03:57:24.074Z,75.80
2017-08-09T03:59:52.368Z,75.70
2017-08-09T04:02:20.703Z,74.90
2017-08-09T04:04:49.663Z,77.00
2017-08-09T04:07:18.672Z,76.50
2017-08-09T04:09:46.973Z,76.40
2017-08-09T04:12:15.227Z,77.30
2017-08-09T04:14:43.493Z,77.40
2017-08-09T04:17:12.491Z,76.40
2017-08-09T04:19:40.735Z,76.40
2017-08-09T04:22:08.993Z,76.10
2017-08-09T04:24:37.245Z,75.70
2017-08-09T04:27:05.470Z,74.70
2017-08-09T04:29:34.526Z,74.40
2017-08-09T04:32:02.737Z,74.40
2017-08-09T04:34:30.966Z,74.10
2017-08-09T04:36:59.206Z,73.80
2017-08-09T04:39:28.190Z,73.10
2017-08-09T04:41:57.217Z,72.70
2017-08-09T04:44:25.452Z,72.70
2017-08-09T04:46:53.719Z,72.70
2017-08-09T04:49:21.947Z,72.50
2017-08-09T04:51:50.194Z,71.70
2017-08-09T04:54:19.233Z,71.50
2017-08-09T04:56:47.495Z,71.50
2017-08-09T04:59:15.718Z,71.10
2017-08-09T05:01:43.985Z,71.00
2017-08-09T05:04:12.258Z,70.70
2017-08-09T05:06:40.482Z,71.00
2017-08-09T05:09:09.493Z,71.20
2017-08-09T05:11:37.730Z,71.20
2017-08-09T05:14:06.824Z,70.90
2017-08-09T05:16:35.206Z,70.80
2017-08-09T05:19:03.453Z,70.60
2017-08-09T05:21:31.687Z,70.60
2017-08-09T05:24:00.697Z,70.20
2017-08-09T05:26:28.933Z,70.20
2017-08-09T05:28:57.993Z,70.30
2017-08-09T05:31:26.215Z,70.10
2017-08-09T05:33:54.418Z,70.40
2017-08-09T05:36:22.669Z,70.40
2017-08-09T05:38:51.663Z,70.40
2017-08-09T05:41:20.686Z,70.60
2017-08-09T05:43:49.701Z,70.00
2017-08-09T05:46:17.947Z,70.00
2017-08-09T05:48:46.167Z,70.20
2017-08-09T05:51:14.431Z,69.80
2017-08-09T05:53:42.682Z,70.00
2017-08-09T05:56:10.924Z,69.90
2017-08-09T05:58:39.310Z,70.70
2017-08-09T06:01:07.596Z,70.30
2017-08-09T06:03:35.875Z,70.70
2017-08-09T06:06:05.223Z,71.00
2017-08-09T06:08:33.702Z,70.40
2017-08-09T06:11:02.113Z,70.40
2017-08-09T06:13:31.305Z,71.60
2017-08-09T06:15:59.698Z,70.90
2017-08-09T06:18:27.934Z,70.30
2017-08-09T06:20:56.188Z,69.90
2017-08-09T06:23:24.418Z,69.20
2017-08-09T06:25:52.646Z,69.30
2017-08-09T06:28:20.946Z,69.10
2017-08-09T06:30:49.168Z,69.10
2017-08-09T06:33:17.510Z,69.90
2017-08-09T06:35:45.816Z,69.30
2017-08-09T06:38:14.079Z,69.30
2017-08-09T06:40:42.342Z,68.90
2017-08-09T06:43:10.804Z,68.50
2017-08-09T06:45:39.095Z,67.80
2017-08-09T06:48:07.336Z,68.00
2017-08-09T06:50:35.605Z,67.60
2017-08-09T06:53:04.627Z,67.80
2017-08-09T06:55:33.267Z,67.60
2017-08-09T06:58:01.606Z,67.30
2017-08-09T07:00:29.893Z,67.50
2017-08-09T07:02:58.150Z,67.60
2017-08-09T07:05:26.396Z,66.60
2017-08-09T07:07:55.407Z,66.80
2017-08-09T07:10:23.665Z,66.00
2017-08-09T07:12:52.700Z,67.30
2017-08-09T07:15:20.950Z,67.20
2017-08-09T07:17:49.202Z,66.70
2017-08-09T07:20:17.866Z,66.60
2017-08-09T07:22:46.128Z,66.10
2017-08-09T07:25:14.378Z,65.70
2017-08-09T07:27:42.644Z,65.00
2017-08-09T07:30:10.875Z,64.60
2017-08-09T07:32:39.134Z,64.10
2017-08-09T07:35:07.370Z,63.60
2017-08-09T07:37:35.628Z,64.00
2017-08-09T07:40:03.877Z,65.00
2017-08-09T07:42:32.134Z,64.70
2017-08-09T07:45:00.395Z,63.90
2017-08-09T07:47:28.606Z,63.60
2017-08-09T07:49:56.875Z,62.60
2017-08-09T07:52:25.147Z,62.20
2017-08-09T07:54:53.402Z,60.80
2017-08-09T07:57:21.678Z,60.90
2017-08-09T07:59:49.926Z,61.10
2017-08-09T08:02:18.950Z,59.70
2017-08-09T08:04:47.187Z,59.70
2017-08-09T08:07:15.461Z,59.80
2017-08-09T08:09:43.691Z,60.10
2017-08-09T08:12:11.963Z,60.30
2017-08-09T08:14:40.199Z,61.30
2017-08-09T08:17:09.230Z,60.00
2017-08-09T08:19:37.506Z,59.40
2017-08-09T08:22:05.745Z,58.90
2017-08-09T08:24:34.765Z,59.10
2017-08-09T08:27:03.013Z,59.10
2017-08-09T08:29:31.266Z,58.70
2017-08-09T08:31:59.494Z,57.40
2017-08-09T08:34:27.778Z,56.30
2017-08-09T08:36:56.010Z,55.60
2017-08-09T08:39:24.257Z,55.90
2017-08-09T08:41:52.534Z,55.80
2017-08-09T08:44:20.792Z,54.10
2017-08-09T08:46:49.015Z,54.50
2017-08-09T08:49:17.272Z,54.70
2017-08-09T08:51:45.508Z,53.50
2017-08-09T08:54:14.541Z,54.40
2017-08-09T08:56:42.753Z,54.30
2017-08-09T08:59:11.775Z,54.00
2017-08-09T09:01:40.041Z,54.00
2017-08-09T09:04:08.298Z,54.90
2017-08-09T09:06:36.523Z,54.80
2017-08-09T09:09:04.774Z,55.20
2017-08-09T09:11:33.762Z,54.40
2017-08-09T09:14:02.812Z,55.60
2017-08-09T09:16:31.056Z,55.60
2017-08-09T09:18:59.298Z,55.10
2017-08-09T09:21:27.568Z,54.70
2017-08-09T09:23:55.807Z,55.00
2017-08-09T09:26:24.076Z,54.10
2017-08-09T09:28:52.289Z,53.50
2017-08-09T09:31:20.541Z,53.70
2017-08-09T09:33:48.821Z,54.40
2017-08-09T09:36:17.048Z,54.80
2017-08-09T09:38:45.312Z,54.30
2017-08-09T09:41:13.573Z,54.60
2017-08-09T09:43:41.805Z,53.00
2017-08-09T09:46:10.093Z,52.00
2017-08-09T09:48:38.347Z,52.90
2017-08-09T09:51:06.615Z,51.40
2017-08-09T09:53:35.651Z,50.60
2017-08-09T09:56:03.870Z,50.60
2017-08-09T09:58:32.188Z,51.00
2017-08-09T10:01:00.447Z,50.70
2017-08-09T10:03:28.699Z,49.70
2017-08-09T10:05:56.967Z,51.00
2017-08-09T10:08:25.251Z,50.90
2017-08-09T10:10:53.582Z,50.50
2017-08-09T10:13:21.807Z,50.90
2017-08-09T10:15:50.056Z,49.20
2017-08-09T10:18:18.538Z,49.70
2017-08-09T10:20:46.803Z,50.70
2017-08-09T10:23:15.030Z,49.80
2017-08-09T10:25:44.044Z,50.50
2017-08-09T10:28:12.288Z,50.50
2017-08-09T10:30:40.531Z,50.70
2017-08-09T10:33:08.826Z,49.40
2017-08-09T10:35:37.069Z,49.20
2017-08-09T10:38:05.320Z,49.40
2017-08-09T10:40:34.331Z,47.60
2017-08-09T10:43:02.557Z,47.50
2017-08-09T10:45:30.807Z,47.50
2017-08-09T10:47:59.065Z,46.30
2017-08-09T10:50:27.299Z,48.40
2017-08-09T10:52:55.754Z,47.30
2017-08-09T10:55:24.781Z,48.50
2017-08-09T10:57:53.816Z,48.80
2017-08-09T11:00:22.186Z,48.70
2017-08-09T11:02:50.426Z,47.90
2017-08-09T11:05:18.701Z,49.00
2017-08-09T11:07:46.950Z,48.60
2017-08-09T11:10:15.210Z,49.00
2017-08-09T11:12:43.446Z,48.80
2017-08-09T11:15:12.477Z,47.20
2017-08-09T11:17:40.769Z,47.20
2017-08-09T11:20:09.015Z,46.80
2017-08-09T11:22:37.264Z,47.60
2017-08-09T11:25:06.281Z,47.40
2017-08-09T11:27:34.544Z,47.30
2017-08-09T11:30:03.547Z,47.00
2017-08-09T11:32:32.582Z,47.40
2017-08-09T11:35:00.867Z,47.30
2017-08-09T11:37:29.106Z,48.40
2017-08-09T11:39:58.146Z,45.90
2017-08-09T11:42:26.424Z,45.90
2017-08-09T11:44:54.686Z,47.20
2017-08-09T11:47:23.244Z,45.90
2017-08-09T11:49:51.506Z,45.80
2017-08-09T11:52:19.788Z,45.00
2017-08-09T11:54:48.803Z,46.00
2017-08-09T11:57:17.803Z,45.90
2017-08-09T11:59:46.046Z,45.90
2017-08-09T12:02:14.251Z,47.40
2017-08-09T12:04:42.553Z,47.10
2017-08-09T12:07:10.834Z,47.60
2017-08-09T12:09:39.082Z,46.40
2017-08-09T12:12:07.360Z,46.30
2017-08-09T12:14:35.575Z,45.80
2017-08-09T12:17:03.836Z,45.50
2017-08-09T12:19:32.104Z,46.00
2017-08-09T12:22:00.380Z,47.30
2017-08-09T12:24:28.664Z,46.20
2017-08-09T12:26:57.214Z,45.90
2017-08-09T12:29:25.449Z,45.30
2017-08-09T12:31:53.693Z,45.30
2017-08-09T12:34:21.948Z,45.90
2017-08-09T12:36:50.201Z,46.20
2017-08-09T12:39:18.470Z,45.20
2017-08-09T12:41:46.770Z,45.90
2017-08-09T12:44:15.016Z,45.20
2017-08-09T12:46:43.276Z,46.10
2017-08-09T12:49:11.558Z,45.50
2017-08-09T12:51:39.841Z,43.30
2017-08-09T12:54:08.102Z,43.50
2017-08-09T12:56:36.339Z,41.90
2017-08-09T12:59:04.588Z,42.60
2017-08-09T13:01:33.585Z,42.90
2017-08-09T13:04:02.626Z,42.70
2017-08-09T13:06:30.906Z,42.70
2017-08-09T13:08:59.601Z,43.70
2017-08-09T13:11:27.878Z,44.00
2017-08-09T13:13:56.157Z,42.40
2017-08-09T13:16:24.395Z,42.90
2017-08-09T13:18:53.395Z,41.90
2017-08-09T13:21:21.611Z,41.90
2017-08-09T13:23:49.873Z,45.10
2017-08-09T13:26:18.152Z,42.10
2017-08-09T13:28:46.419Z,42.60
2017-08-09T13:31:14.697Z,42.20
2017-08-09T13:33:42.950Z,42.90
2017-08-09T13:36:11.232Z,43.50
2017-08-09T13:38:39.506Z,43.50
2017-08-09T13:41:07.765Z,42.40
2017-08-09T13:43:36.760Z,44.10
2017-08-09T13:46:05.767Z,43.40
2017-08-09T13:48:34.042Z,43.30
2017-08-09T13:51:02.308Z,42.90
2017-08-09T13:53:30.611Z,42.40
2017-08-09T13:55:59.591Z,43.60
2017-08-09T13:58:28.609Z,41.90
2017-08-09T14:00:56.882Z,41.70
2017-08-09T14:03:25.370Z,41.30
2017-08-09T14:05:53.618Z,41.20
2017-08-09T14:08:21.875Z,39.90
2017-08-09T14:10:50.143Z,41.80
2017-08-09T14:13:18.378Z,39.30
2017-08-09T14:15:46.638Z,40.80
2017-08-09T14:18:14.946Z,38.20
2017-08-09T14:20:43.248Z,37.00
2017-08-09T14:23:11.539Z,38.50
2017-08-09T14:25:39.776Z,37.80
2017-08-09T14:28:08.036Z,39.10
2017-08-09T14:30:36.320Z,38.50
2017-08-09T14:33:04.696Z,38.60
2017-08-09T14:35:32.958Z,38.50
2017-08-09T14:38:01.206Z,39.30
2017-08-09T14:40:29.448Z,36.70
2017-08-09T14:42:57.704Z,38.00
2017-08-09T14:45:25.953Z,38.40
2017-08-09T14:47:54.986Z,37.70
2017-08-09T14:50:23.209Z,38.20
2017-08-09T14:52:52.254Z,38.80
2017-08-09T14:55:20.489Z,38.80
2017-08-09T14:57:49.494Z,39.50
2017-08-09T15:00:17.755Z,39.40
2017-08-09T15:02:46.754Z,39.20
2017-08-09T15:05:15.770Z,39.80
2017-08-09T15:07:44.054Z,39.80
2017-08-09T15:10:12.311Z,39.80
2017-08-09T15:12:40.566Z,39.30
2017-08-09T15:15:09.570Z,39.90
2017-08-09T15:17:38.597Z,39.60
2017-08-09T15:20:06.853Z,39.50
2017-08-09T15:22:35.161Z,39.00
2017-08-09T15:25:03.441Z,40.90
2017-08-09T15:27:31.723Z,40.00
2017-08-09T15:30:00.029Z,41.00
2017-08-09T15:32:28.287Z,39.50
2017-08-09T15:34:56.564Z,41.40
2017-08-09T15:37:24.830Z,40.00
2017-08-09T15:39:53.094Z,42.30
2017-08-09T15:42:21.298Z,40.80
2017-08-09T15:44:49.584Z,40.20
2017-08-09T15:47:17.829Z,42.10
2017-08-09T15:49:46.092Z,41.60
2017-08-09T15:52:14.348Z,42.10
2017-08-09T15:54:42.613Z,41.70
2017-08-09T15:57:10.855Z,41.50
2017-08-09T15:59:39.113Z,42.10
2017-08-09T16:02:07.358Z,42.80
2017-08-09T16:04:36.362Z,44.40
2017-08-09T16:07:04.634Z,44.50
2017-08-09T16:09:32.868Z,45.70
2017-08-09T16:12:01.140Z,44.40
2017-08-09T16:14:29.423Z,44.00
2017-08-09T16:16:57.684Z,45.10
2017-08-09T16:19:25.967Z,43.90
2017-08-09T16:21:54.338Z,41.00
2017-08-09T16:24:22.563Z,41.60
2017-08-09T16:26:51.564Z,42.20
2017-08-09T16:29:19.853Z,42.20
2017-08-09T16:31:48.123Z,42.30
2017-08-09T16:34:16.380Z,42.90
2017-08-09T16:36:44.662Z,40.90
2017-08-09T16:39:12.942Z,42.10
2017-08-09T16:41:44.113Z,43.20
2017-08-09T16:44:12.345Z,42.10
2017-08-09T16:46:40.690Z,42.10
2017-08-09T16:49:08.910Z,41.60
2017-08-09T16:51:37.953Z,42.60
2017-08-09T16:54:06.154Z,42.60
2017-08-09T16:56:36.249Z,42.40
2017-08-09T16:59:04.528Z,42.80
2017-08-09T17:01:33.532Z,42.10
2017-08-09T17:04:01.764Z,42.00
2017-08-09T17:06:30.854Z,43.00
2017-08-09T17:08:59.111Z,42.90
2017-08-09T17:11:27.369Z,42.60
2017-08-09T17:13:55.654Z,42.20
2017-08-09T17:16:23.927Z,42.60
2017-08-09T17:18:52.222Z,41.60
2017-08-09T17:21:21.301Z,42.30
2017-08-09T17:23:49.559Z,42.30
2017-08-09T17:26:18.651Z,41.80
2017-08-09T17:28:46.978Z,41.70
2017-08-09T17:31:15.220Z,41.90
2017-08-09T17:33:43.475Z,43.50
2017-08-09T17:36:11.743Z,44.30
2017-08-09T17:38:40.010Z,44.60
2017-08-09T17:41:09.163Z,44.90
2017-08-09T17:43:37.389Z,43.00
2017-08-09T17:46:05.676Z,44.60
2017-08-09T17:48:33.996Z,45.70
2017-08-09T17:51:02.264Z,47.10
2017-08-09T17:53:30.557Z,47.40
2017-08-09T17:55:58.818Z,48.50
2017-08-09T17:58:27.103Z,48.40
2017-08-09T18:00:55.469Z,49.60
2017-08-09T18:03:23.693Z,48.60
2017-08-09T18:05:52.726Z,51.90
2017-08-09T18:08:20.993Z,51.80
2017-08-09T18:10:49.289Z,54.30
2017-08-09T18:13:17.554Z,53.80
2017-08-09T18:15:45.828Z,55.30
2017-08-09T18:18:14.099Z,55.60
2017-08-09T18:20:42.343Z,57.00
2017-08-09T18:23:10.625Z,56.70
2017-08-09T18:25:38.893Z,56.00
2017-08-09T18:28:07.231Z,56.00
2017-08-09T18:30:35.469Z,56.70
2017-08-09T18:33:03.722Z,56.80
2017-08-09T18:35:31.990Z,55.50
2017-08-09T18:38:00.259Z,56.80
2017-08-09T18:40:28.570Z,57.20
2017-08-09T18:42:56.844Z,56.50
2017-08-09T18:45:25.102Z,57.60
2017-08-09T18:47:53.405Z,59.20
2017-08-09T18:50:22.408Z,58.40
2017-08-09T18:52:50.745Z,58.40
2017-08-09T18:55:19.029Z,59.30
2017-08-09T18:57:47.244Z,59.00
2017-08-09T19:00:16.268Z,59.90
2017-08-09T19:02:45.015Z,59.90
2017-08-09T19:05:13.273Z,60.50
2017-08-09T19:07:41.523Z,61.70
2017-08-09T19:10:09.817Z,63.10
2017-08-09T19:12:38.054Z,64.70
2017-08-09T19:15:06.357Z,62.30
2017-08-09T19:17:34.692Z,63.10
2017-08-09T19:20:03.721Z,64.50
2017-08-09T19:22:31.985Z,64.50
2017-08-09T19:25:00.271Z,63.60
2017-08-09T19:27:28.521Z,63.70
2017-08-09T19:29:56.803Z,63.30
2017-08-09T19:32:25.084Z,63.90
2017-08-09T19:34:53.393Z,67.00
2017-08-09T19:37:21.647Z,65.20
2017-08-09T19:39:49.895Z,66.40
2017-08-09T19:42:18.955Z,63.60
2017-08-09T19:44:47.605Z,63.60
2017-08-09T19:47:15.858Z,64.00
2017-08-09T19:49:44.105Z,65.10
2017-08-09T19:52:12.357Z,65.60
2017-08-09T19:54:40.644Z,65.30
2017-08-09T19:57:08.958Z,65.70
2017-08-09T19:59:37.215Z,65.50
2017-08-09T20:02:05.491Z,66.00
2017-08-09T20:04:33.766Z,66.20
2017-08-09T20:07:02.034Z,65.70
2017-08-09T20:09:30.286Z,65.80
2017-08-09T20:11:59.313Z,66.40
2017-08-09T20:14:27.576Z,66.00
2017-08-09T20:16:55.894Z,66.10
2017-08-09T20:19:24.105Z,66.50
2017-08-09T20:21:52.395Z,66.00
2017-08-09T20:24:20.760Z,67.00
2017-08-09T20:26:49.036Z,67.80
2017-08-09T20:29:17.302Z,67.30
2017-08-09T20:31:45.565Z,66.40
2017-08-09T20:34:13.842Z,65.70
2017-08-09T20:36:42.154Z,65.40
2017-08-09T20:39:10.437Z,64.30
2017-08-09T20:41:38.709Z,64.30
2017-08-09T20:44:07.011Z,64.00
2017-08-09T20:46:35.272Z,63.40
2017-08-09T20:49:03.569Z,64.10
2017-08-09T20:51:31.827Z,65.10
2017-08-09T20:54:00.079Z,66.20
2017-08-09T20:56:28.440Z,67.40
2017-08-09T20:58:58.339Z,68.70
2017-08-09T21:01:27.406Z,69.50
2017-08-09T21:03:55.663Z,69.40
2017-08-09T21:06:23.956Z,69.30
2017-08-09T21:08:52.996Z,68.80
2017-08-09T21:11:21.321Z,68.70
2017-08-09T21:13:49.591Z,68.80
2017-08-09T21:16:17.912Z,69.20
2017-08-09T21:18:46.261Z,69.20
2017-08-09T21:21:14.840Z,67.00
2017-08-09T21:23:43.074Z,66.00
2017-08-09T21:26:12.116Z,65.30
2017-08-09T21:28:40.360Z,65.30
2017-08-09T21:31:08.657Z,67.70
2017-08-09T21:33:36.907Z,67.50
2017-08-09T21:36:05.165Z,67.80
2017-08-09T21:38:34.242Z,68.80
2017-08-09T21:41:02.531Z,68.80
2017-08-09T21:43:31.546Z,70.40
2017-08-09T21:46:00.567Z,70.40
2017-08-09T21:48:28.826Z,71.00
2017-08-09T21:50:57.096Z,70.50
2017-08-09T21:53:25.375Z,69.90
2017-08-09T21:55:54.385Z,71.00
2017-08-09T21:58:22.679Z,71.00
2017-08-09T22:00:50.926Z,72.30
2017-08-09T22:03:19.228Z,71.60
2017-08-09T22:05:47.776Z,72.20
2017-08-09T22:08:16.095Z,71.10
2017-08-09T22:10:44.822Z,70.30
2017-08-09T22:13:13.086Z,69.90
2017-08-09T22:15:41.342Z,69.20
2017-08-09T22:18:09.577Z,69.20
2017-08-09T22:20:38.589Z,68.60
2017-08-09T22:23:06.811Z,68.60
2017-08-09T22:25:35.058Z,68.60
2017-08-09T22:28:03.305Z,69.90
2017-08-09T22:30:31.595Z,70.30
2017-08-09T22:32:59.886Z,70.50
2017-08-09T22:35:28.139Z,71.10
2017-08-09T22:37:57.161Z,72.60
2017-08-09T22:40:25.394Z,72.50
2017-08-09T22:42:53.683Z,72.30
2017-08-09T22:45:21.927Z,72.30
2017-08-09T22:47:50.190Z,73.00
2017-08-09T22:50:18.439Z,73.20
2017-08-09T22:52:46.706Z,72.90
2017-08-09T22:55:15.018Z,71.50
2017-08-09T22:57:43.227Z,71.20
2017-08-09T23:00:12.253Z,71.20
2017-08-09T23:02:40.519Z,71.10
2017-08-09T23:05:08.785Z,71.90
2017-08-09T23:07:37.778Z,73.00
2017-08-09T23:10:06.014Z,73.00
2017-08-09T23:12:34.273Z,72.70
2017-08-09T23:15:02.534Z,71.70
2017-08-09T23:17:30.806Z,72.40
2017-08-09T23:19:59.042Z,72.90
2017-08-09T23:22:27.379Z,73.20
2017-08-09T23:24:55.651Z,73.00
2017-08-09T23:27:23.908Z,73.10
2017-08-09T23:29:52.152Z,73.20
2017-08-09T23:32:20.405Z,73.70
2017-08-09T23:34:48.667Z,73.90
2017-08-09T23:37:16.889Z,73.90
2017-08-09T23:39:45.905Z,71.20
2017-08-09T23:42:14.900Z,73.80
2017-08-09T23:44:43.160Z,73.60
2017-08-09T23:47:12.215Z,74.20
2017-08-09T23:49:40.438Z,74.20
2017-08-09T23:52:09.430Z,74.60
2017-08-09T23:54:37.846Z,74.60
2017-08-09T23:57:06.113Z,74.50
2017-08-09T23:59:34.401Z,75.20
